Main page
METAR-TAF:

METAR-TAF

Airports :

Chariton Municipal Airport

Chariton, Iowa, United States

latitude: 41-02N, longitude: 093-22W, elevation: 1050 ft

Current weather observation

The report was made 28 minutes ago, at 16:15 UTC
Wind 17 mph from the North/Northwest
Temperature 68°F
Humidity 100%
Pressure 29.88 in. Hg
Visibility: 10 miles
Scattered clouds at a height of 1300 ft
Broken clouds at a height of 1700 ft
Overcast at a height of 4000 ft

METAR: KCNC 281615Z AUTO 33015KT 10SM SCT013 BKN017 OVC040 20/20 A2988 RMK AO2

Time: 11:43 (16:43 UTC)


TAF: missing

Weather observations and forecasts of more than 4000 airports (METAR and TAF reports).

The available stations are represented by yellow and red dots on the map.

Hover mouse over dot to see the name of the station.

Then click to see weather observations and forecasts.

To change the map : click on the green buttons with a black cross to zoom in, on the green button with a dash to zoom out, or on the green arrows for adjacent maps.


METAR-TAF: